Latest Weather Observations for Mareeba

IDQ60801

Issued at 2:35 pm EST Sunday 23 November 2014 (issued every 30 minutes, with the page automatically refreshed every 10 minutes)

About weather observations | Map of weather stations | Latest weather observations for QLD | Other Formats
Station Details ID: 031210 Name: MAREEBA AIRPORT Lat: -17.07 Lon: 145.43 Height: 471.93 m
Data from the previous 72 hours. | See also: Recent months at Mareeba
Date/Time
EST
Temp
°C
App
Temp
°C
Dew
Point
Rel
Hum
%
Delta-T
°C
Wind Press
QNH
hPa
Press
MSL
hPa
Rain
since 9 am
mm
Dir
 
Spd
km/h
Gust
km/h
Spd
kts
Gust
kts
23/02:30pm 31.6 31.2 16.3 39 9.8 ENE 13 20 7 11 1013.5 - 0.0
23/02:00pm 32.6 31.3 13.8 32 11.6 ESE 13 20 7 11 1013.7 - 0.0
23/01:30pm 31.2 30.8 15.2 38 10.0 ENE 11 20 6 11 1014.1 - 0.0
23/01:00pm 31.3 29.7 14.0 35 10.7 E 15 26 8 14 1014.6 - 0.0
23/12:30pm 30.7 29.0 14.8 38 9.9 ENE 17 28 9 15 1014.9 - 0.0
23/12:00pm 30.6 28.3 13.0 34 10.7 SE 17 30 9 16 1015.5 1012.5 0.0
23/11:30am 31.2 28.8 13.9 35 10.7 ESE 19 30 10 16 1015.8 - 0.0
23/11:00am 30.7 28.1 14.8 38 9.9 SSE 22 30 12 16 1016.3 - 0.0
23/10:30am 28.8 27.2 15.0 43 8.6 ENE 17 24 9 13 1016.7 - 0.0
23/10:00am 28.4 27.3 15.3 45 8.2 NE 15 26 8 14 1016.8 - 0.0
23/09:30am 28.3 26.1 15.9 47 7.8 E 22 30 12 16 1016.9 - 0.0
23/09:00am 25.8 26.7 16.6 56 5.8 N 7 11 4 6 1017.0 1014.1 0.0
23/08:30am 25.8 26.6 17.4 59 5.3 NE 9 13 5 7 1017.0 - 0.0
23/08:00am 25.0 26.1 17.2 62 4.9 E 7 13 4 7 1016.9 - 0.0
23/07:30am 24.0 24.8 17.3 66 4.2 SE 9 13 5 7 1016.6 - 0.0
23/07:00am 22.7 22.8 17.4 72 3.3 SSE 13 15 7 8 1016.5 - 0.0
23/06:30am 21.2 22.0 17.2 78 2.5 SE 9 13 5 7 1016.2 - 0.0
23/06:00am 19.9 21.1 17.3 85 1.6 SSE 7 11 4 6 1015.9 1012.9 0.0
23/05:30am 19.6 21.2 17.0 85 1.6 S 4 9 2 5 1015.5 - 0.0
23/05:00am 20.1 20.8 17.1 83 1.9 SE 9 13 5 7 1015.0 - 0.0
23/04:30am 20.3 22.1 17.3 83 1.9 ESE 4 11 2 6 1014.8 - 0.0
23/04:00am 20.6 21.9 17.6 83 1.9 SE 7 11 4 6 1014.6 - 0.0
23/03:30am 20.5 21.4 17.5 83 1.9 SE 9 11 5 6 1014.7 - 0.0
23/03:00am 20.7 21.6 17.5 82 2.0 SE 9 11 5 6 1014.7 1011.8 0.0
23/02:30am 20.7 21.2 17.5 82 2.0 SSE 11 17 6 9 1014.7 - 0.0
23/02:00am 20.8 21.3 17.4 81 2.1 SSE 11 15 6 8 1014.7 - 0.0
23/01:30am 21.0 21.5 17.4 80 2.3 SSE 11 13 6 7 1014.8 - 0.0
23/01:00am 20.9 21.3 17.3 80 2.3 SE 11 15 6 8 1014.9 - 0.0
23/12:30am 19.8 21.9 16.3 80 2.1 CALM 0 0 0 0 1015.4 - 0.0
23/12:00am 20.2 22.1 16.8 81 2.1 S 2 9 1 5 1015.8 1012.8 0.0
 
Date/Time
EST
Temp
°C
App
Temp
°C
Dew
Point
Rel
Hum
%
Delta-T
°C
Wind Press
QNH
hPa
Press
MSL
hPa
Rain
since 9 am
mm
Dir
 
Spd
km/h
Gust
km/h
Spd
kts
Gust
kts
22/11:30pm 20.5 22.9 17.1 81 2.1 CALM 0 0 0 0 1016.2 - 0.0
22/11:00pm 21.2 23.8 17.4 79 2.4 CALM 0 0 0 0 1016.2 - 0.0
22/10:30pm 21.7 23.9 17.5 77 2.6 NE 2 6 1 3 1016.3 - 0.0
22/10:00pm 22.3 24.8 18.1 77 2.7 WNW 2 7 1 4 1016.2 - 0.0
22/09:30pm 22.0 24.2 18.4 80 2.3 NNW 4 7 2 4 1015.7 - 0.0
22/09:00pm 22.6 25.6 18.4 77 2.7 CALM 0 0 0 0 1015.5 1012.5 0.0
22/08:30pm 23.2 26.1 18.3 74 3.1 CALM 0 0 0 0 1015.2 - 0.0
22/08:00pm 23.6 25.3 18.5 73 3.3 NNE 7 13 4 7 1015.1 - 0.0
22/07:30pm 24.0 25.7 18.4 71 3.6 NNE 7 13 4 7 1014.6 - 0.0
22/07:00pm 24.5 25.1 18.7 70 3.8 NNE 13 20 7 11 1014.3 - 0.0
22/06:30pm 25.1 26.0 18.5 67 4.3 NNE 11 20 6 11 1014.1 - 0.0
22/06:00pm 26.0 25.8 18.4 63 4.9 NNE 17 30 9 16 1013.7 1010.7 0.0
22/05:30pm 27.4 27.2 18.4 58 5.8 NE 17 30 9 16 1013.3 - 0.0
22/05:00pm 27.9 27.6 19.1 58 5.8 N 19 28 10 15 1012.9 - 0.0
22/04:30pm 28.9 28.3 18.9 54 6.6 NNE 20 32 11 17 1012.5 - 0.0
22/04:00pm 30.0 29.5 19.1 52 7.2 N 20 35 11 19 1012.4 - 0.0
22/03:30pm 30.3 29.6 18.7 50 7.6 NNE 20 30 11 16 1012.4 - 0.0
22/03:00pm 30.8 30.2 18.8 48 7.9 N 20 35 11 19 1012.5 1009.5 0.0
22/02:30pm 31.9 31.6 19.2 47 8.5 NNE 19 32 10 17 1012.7 - 0.0
22/02:00pm 31.8 31.2 18.4 45 8.8 NNE 19 30 10 16 1013.2 - 0.0
22/01:30pm 32.2 30.9 16.9 40 9.9 NNE 19 30 10 16 1013.4 - 0.0
22/01:00pm 33.0 32.7 16.4 37 10.7 NE 13 24 7 13 1013.7 - 0.0
22/12:30pm 32.6 32.3 16.4 37 10.4 ENE 13 20 7 11 1014.1 - 0.0
22/12:00pm 31.6 32.0 16.3 39 9.8 N 9 17 5 9 1014.6 1011.6 0.0
22/11:30am 30.9 32.0 17.2 43 8.8 W 7 15 4 8 1015.0 - 0.0
22/11:00am 29.2 30.2 16.4 46 8.1 ENE 6 15 3 8 1015.6 - 0.0
22/10:30am 28.6 29.5 16.5 48 7.7 ESE 7 15 4 8 1016.1 - 0.0
22/10:00am 28.0 29.0 16.9 51 7.1 WSW 7 13 4 7 1016.3 - 0.0
22/09:30am 27.0 27.3 16.9 54 6.4 NE 11 19 6 10 1016.5 - 0.0
22/09:00am 26.2 27.4 17.3 58 5.7 ENE 7 13 4 7 1016.6 1013.7 0.0
22/08:30am 25.7 27.1 17.4 60 5.3 ENE 6 13 3 7 1016.7 - 0.0
22/08:00am 24.6 25.8 16.8 62 4.9 ESE 6 11 3 6 1016.7 - 0.0
22/07:30am 23.4 24.3 16.7 66 4.2 SE 7 9 4 5 1016.5 - 0.0
22/07:00am 22.5 23.3 17.4 73 3.2 SE 9 13 5 7 1016.6 - 0.0
22/06:30am 21.0 22.3 17.6 81 2.1 S 7 9 4 5 1016.2 - 0.0
22/06:00am 19.0 19.7 17.1 89 1.2 SSW 9 9 5 5 1015.9 1012.9 0.0
22/05:30am 18.4 19.3 16.0 86 1.5 SSE 6 7 3 4 1015.1 - 0.0
22/05:00am 18.9 19.5 16.7 87 1.4 SSE 9 11 5 6 1014.9 - 0.0
22/04:30am 19.1 19.4 17.1 88 1.2 SE 11 13 6 7 1014.8 - 0.0
22/04:00am 19.1 19.7 16.9 87 1.4 SE 9 11 5 6 1014.7 - 0.0
22/03:30am 19.1 19.7 16.7 86 1.5 ESE 9 11 5 6 1014.5 - 0.0
22/03:00am 18.8 20.8 16.9 89 1.2 S 2 7 1 4 1014.3 1011.3 0.0
22/02:30am 18.4 20.4 16.0 86 1.5 CALM 0 0 0 0 1014.3 - 0.0
22/02:00am 19.0 21.2 16.6 86 1.5 CALM 0 0 0 0 1014.4 - 0.0
22/01:30am 19.3 21.6 16.7 85 1.6 CALM 0 0 0 0 1014.7 - 0.0
22/01:00am 20.1 22.6 17.3 84 1.7 CALM 0 0 0 0 1015.0 - 0.0
22/12:30am 20.6 22.6 17.8 84 1.8 W 4 9 2 5 1015.6 - 0.0
22/12:00am 21.4 24.2 18.0 81 2.2 CALM 0 0 0 0 1015.6 1012.6 0.0
 
Date/Time
EST
Temp
°C
App
Temp
°C
Dew
Point
Rel
Hum
%
Delta-T
°C
Wind Press
QNH
hPa
Press
MSL
hPa
Rain
since 9 am
mm
Dir
 
Spd
km/h
Gust
km/h
Spd
kts
Gust
kts
21/11:30pm 21.6 23.2 18.2 81 2.2 N 7 11 4 6 1015.7 - 0.0
21/11:00pm 22.0 23.6 18.2 79 2.4 NNE 7 11 4 6 1015.8 - 0.0
21/10:30pm 22.5 24.1 18.3 77 2.7 NNE 7 11 4 6 1016.0 - 0.0
21/10:00pm 22.9 24.7 18.7 77 2.7 NNE 7 13 4 7 1016.1 - 0.0
21/09:30pm 22.9 24.7 18.7 77 2.7 NE 7 15 4 8 1015.9 - 0.0
21/09:00pm 22.8 24.8 19.2 80 2.3 NNE 7 15 4 8 1015.4 1012.4 0.0
21/08:30pm 22.6 24.7 19.4 82 2.1 NNE 7 13 4 7 1015.0 - 0.0
21/08:00pm 22.7 24.0 19.3 81 2.2 NNE 11 19 6 10 1014.5 - 0.0
21/07:30pm 23.1 24.6 19.7 81 2.2 N 11 19 6 10 1014.3 - 0.0
21/07:00pm 23.5 24.9 19.6 79 2.5 N 11 20 6 11 1013.9 - 0.0
21/06:30pm 24.3 25.0 19.6 75 3.1 N 15 20 8 11 1013.6 - 0.0
21/06:00pm 25.3 26.0 19.7 71 3.7 NNE 15 24 8 13 1013.2 1010.2 0.0
21/05:30pm 26.7 27.5 19.8 66 4.6 N 15 22 8 12 1012.9 - 0.0
21/05:00pm 27.2 27.0 19.3 62 5.2 N 19 30 10 16 1012.6 - 0.0
21/04:30pm 28.7 28.6 19.6 58 6.0 NNE 19 32 10 17 1012.4 - 0.0
21/04:00pm 29.5 29.2 19.2 54 6.8 NNE 19 30 10 16 1012.4 - 0.0
21/03:30pm 30.5 30.0 19.2 51 7.5 NNE 20 32 11 17 1012.4 - 0.0
21/03:00pm 31.1 30.8 19.1 48 8.0 NNE 19 30 10 16 1012.5 1009.5 0.0
21/02:30pm 31.3 30.9 19.0 48 8.1 NNE 19 26 10 14 1012.8 - 0.0
21/02:00pm 32.1 31.7 19.0 45 8.7 NNE 19 33 10 18 1013.3 - 0.0
21/01:30pm 32.5 32.6 18.3 43 9.4 NNE 15 26 8 14 1013.6 - 0.0
21/01:00pm 33.2 33.3 16.5 36 10.7 NNE 11 17 6 9 1014.0 - 0.0
21/12:30pm 32.7 32.6 16.1 37 10.6 NNE 11 19 6 10 1014.4 - 0.0
21/12:00pm 31.3 31.3 15.3 38 10.1 N 9 17 5 9 1014.9 1012.0 0.0
21/11:30am 31.1 31.6 15.5 39 9.8 NNW 7 17 4 9 1015.5 - 0.0
21/11:00am 30.2 30.1 15.9 42 9.0 NE 11 19 6 10 1016.0 - 0.0
21/10:30am 29.8 31.0 17.3 47 8.1 WNW 7 13 4 7 1016.3 - 0.0
21/10:00am 28.2 28.5 16.1 47 7.6 ENE 9 15 5 8 1016.5 - 0.0
21/09:30am 27.3 28.0 16.0 50 7.1 ENE 7 13 4 7 1016.8 - 0.0
21/09:00am 27.1 27.8 17.0 54 6.4 N 9 15 5 8 1017.1 1014.2 0.0
21/08:30am 25.0 26.1 17.2 62 4.9 N 7 15 4 8 1017.0 - 0.0
21/08:00am 24.3 25.5 16.8 63 4.7 NW 6 11 3 6 1017.0 - 0.0
21/07:30am 23.0 25.0 17.0 69 3.8 N 2 7 1 4 1016.8 - 0.0
21/07:00am 22.0 24.8 18.0 78 2.5 CALM 0 0 0 0 1016.6 - 0.0
21/06:30am 19.9 21.4 17.5 86 1.5 SE 6 7 3 4 1016.2 - 0.0
21/06:00am 18.9 21.1 17.4 91 0.9 SSE 2 7 1 4 1015.7 1012.7 0.0
21/05:30am 18.2 19.7 16.7 91 0.9 S 4 7 2 4 1015.1 - 0.0
21/05:00am 18.3 20.2 16.6 90 1.0 S 2 6 1 3 1015.1 - 0.0
21/04:30am 18.4 19.5 16.7 90 1.0 ESE 6 9 3 5 1014.9 - 0.0
21/04:00am 19.0 21.5 17.3 90 1.1 CALM 0 7 0 4 1014.9 - 0.0
21/03:30am 19.3 22.0 17.8 91 0.9 CALM 0 0 0 0 1014.9 - 0.0
21/03:00am 19.2 21.1 17.7 91 0.9 S 4 9 2 5 1015.0 1012.1 0.0
21/02:30am 19.2 21.7 17.3 89 1.2 CALM 0 0 0 0 1015.0 - 0.0
21/02:00am 19.5 22.2 17.8 90 1.1 CALM 0 0 0 0 1015.2 - 0.0
21/01:30am 20.0 22.6 18.5 91 1.0 SE 2 6 1 3 1015.2 - 0.0
21/01:00am 20.4 22.4 18.7 90 1.1 SE 6 7 3 4 1015.5 - 0.0
21/12:30am 20.8 22.8 18.7 88 1.3 NNE 6 7 3 4 1015.5 - 0.0
21/12:00am 21.8 25.2 19.4 86 1.6 CALM 0 0 0 0 1016.1 1013.1 0.0
 
Date/Time
EST
Temp
°C
App
Temp
°C
Dew
Point
Rel
Hum
%
Delta-T
°C
Wind Press
QNH
hPa
Press
MSL
hPa
Rain
since 9 am
mm
Dir
 
Spd
km/h
Gust
km/h
Spd
kts
Gust
kts
20/11:30pm 22.1 25.6 19.5 85 1.7 CALM 0 0 0 0 1016.5 - 0.0
20/11:00pm 22.1 25.7 19.8 87 1.5 CALM 0 0 0 0 1016.4 - 0.0
20/10:30pm 22.1 24.7 20.0 88 1.4 NNE 6 9 3 5 1016.4 - 0.0
20/10:00pm 21.8 25.0 19.7 88 1.4 NNE 2 7 1 4 1016.4 - 0.0
20/09:30pm 21.9 24.6 19.5 86 1.6 N 4 9 2 5 1016.2 - 0.0
20/09:00pm 22.3 24.6 19.5 84 1.8 N 6 11 3 6 1015.9 1012.9 0.0
20/08:30pm 22.5 24.7 19.3 82 2.1 NNE 6 9 3 5 1015.7 - 0.0
20/08:00pm 22.9 25.1 19.3 80 2.3 NNE 6 9 3 5 1015.6 - 0.0
20/07:30pm 23.3 24.8 19.0 77 2.8 NNE 9 17 5 9 1015.1 - 0.0
20/07:00pm 23.8 24.4 18.7 73 3.3 NNE 13 19 7 10 1014.7 - 0.0
20/06:30pm 24.5 24.8 18.7 70 3.8 NNE 15 24 8 13 1014.5 - 0.0
20/06:00pm 25.6 25.0 18.5 65 4.6 NNE 19 26 10 14 1014.1 1011.1 0.0
20/05:30pm 26.5 26.3 18.4 61 5.2 NNE 17 28 9 15 1013.8 - 0.0
20/05:00pm 27.5 27.0 17.9 55 6.2 NNE 17 28 9 15 1013.4 - 0.0
20/04:30pm 28.8 28.3 17.7 51 7.2 NNE 17 30 9 16 1013.1 - 0.0
20/04:00pm 29.5 28.4 17.3 47 7.9 NNE 19 28 10 15 1013.1 - 0.0
20/03:30pm 30.2 29.1 17.3 46 8.3 NE 19 33 10 18 1013.1 - 0.0
20/03:00pm 31.0 30.0 16.6 42 9.2 NNE 17 26 9 14 1013.4 1010.4 0.0

Other Formats:

Comma delimited format used in spreadsheet applications
http://www.bom.gov.au/fwo/IDQ60801/IDQ60801.95286.axf

JavaScript Object Notation format (JSON) in row-major order
http://www.bom.gov.au/fwo/IDQ60801/IDQ60801.95286.json